Terminal Aerodrome Forecast
Issued by NWS

Home | Current Version | Previous Version | Text Only | Print | Product List | Glossary On
Versions: 1 2 3 4 5 6 7 8 9 10 11 12 13 14 15 16 17
000
FTUS42 TJSJ 212100 AAA
TAFIST
TAF AMD
TIST 212154Z 2122/2218 09014G20KT P6SM VCSH SCT022 BKN050
      TEMPO 2122/2123 08016G24KT SHRA SCT025 BKN040 BKN060
     FM220200 08012KT P6SM VCTS SCT020CB BKN040
      TEMPO 2204/2206 05014G27KT 4SM SHRA BKN025
     FM220800 08013G18KT P6SM VCTS SCT025CB BKN050=

USA.gov is the U.S. government's official web portal to all federal, state and local government web resources and services.